world map with QPG marked

QPG - Airport

This information may not be accurate or current and is not valid for navigation or flight planning. No warranty of fitness for any purpose is made or implied.

flag of Singapore

Donate via PayPal

Additional information is available on the NEW Great Circle Mapper

Location
City:  Singapore, Singapore
Name:Paya Lebar AB (Paya Lebar Airport)
ICAO / IATA:WSAP / QPG

Details
Type:Airport (Aerodrome, Airfield)
Use:Public/Civil, Military
Latitude:1°21'21"N (1.355722)
Longitude:103°54'10"E (103.902778)
Elevation:65 ft (20 m)
Runways:1
Longest:12402 × 200 ft (3780 × 61 m)

Time
Timezone:UTC+8 (DST+10)
Local Time:

Weather
METAR:WSAP  170400Z 17003KT 9999 FEW018 BKN260 29/24 Q1011
TAF:WSAP  (expired)

Related Locations
Nearby:
Farthest:SENU: 12384 mi / 19931 km
Nuevo Rocafuerte, D, EC

Find:

   beyond  
but within

Other Information
Maps:
Links:
Sources:

  

Airport Diagram

Airport diagram for QPG

Airport diagram PDF

 


Great Circle Mapper   Great Circle Mapper
Great Circle Mapper FAQ   Great Circle Mapper FAQ
  Karl's Home Page
KLSē   KLSē Home
   GC on Facebook
Airlines of the World   Airlines of the World
Donate via PayPal


Copyright © 2004-2018, Karl L. Swartz. All rights reserved.
All trademarks mentioned herein belong to their respective owners.

Please see credits for attribution and copyright information.

Karl Swartz <karl@kls2.com>
  Powered by FreeBSD
Valid HTML 4.01!
Labeled with ICRA
hCard Microformat
Geo Microformat